sensor_id;sensor_type;location;lat;lon;timestamp;P1;durP1;ratioP1;P2;durP2;ratioP2
42742;SDS011;28397;44.552;-0.848;2022-08-19T00:01:48;8.65;;;4.63;;
42742;SDS011;28397;44.552;-0.848;2022-08-19T00:04:17;10.73;;;4.78;;
42742;SDS011;28397;44.552;-0.848;2022-08-19T00:06:45;9.10;;;4.60;;
42742;SDS011;28397;44.552;-0.848;2022-08-19T00:09:13;8.43;;;4.80;;
42742;SDS011;28397;44.552;-0.848;2022-08-19T00:11:41;8.80;;;4.63;;
42742;SDS011;28397;44.552;-0.848;2022-08-19T00:14:09;10.65;;;5.07;;
42742;SDS011;28397;44.552;-0.848;2022-08-19T00:16:37;7.63;;;4.60;;
42742;SDS011;28397;44.552;-0.848;2022-08-19T00:19:04;8.48;;;4.70;;
42742;SDS011;28397;44.552;-0.848;2022-08-19T00:21:30;10.85;;;5.75;;
42742;SDS011;28397;44.552;-0.848;2022-08-19T00:23:56;9.30;;;5.20;;
42742;SDS011;28397;44.552;-0.848;2022-08-19T00:26:26;9.85;;;5.03;;
42742;SDS011;28397;44.552;-0.848;2022-08-19T00:28:53;6.95;;;4.57;;
42742;SDS011;28397;44.552;-0.848;2022-08-19T00:31:19;9.05;;;4.57;;
42742;SDS011;28397;44.552;-0.848;2022-08-19T00:33:45;10.48;;;4.55;;
42742;SDS011;28397;44.552;-0.848;2022-08-19T00:36:12;10.63;;;4.95;;
42742;SDS011;28397;44.552;-0.848;2022-08-19T00:38:39;10.10;;;5.20;;
42742;SDS011;28397;44.552;-0.848;2022-08-19T00:41:08;8.27;;;4.70;;
42742;SDS011;28397;44.552;-0.848;2022-08-19T00:43:35;9.13;;;4.70;;
42742;SDS011;28397;44.552;-0.848;2022-08-19T00:46:01;10.73;;;5.60;;
42742;SDS011;28397;44.552;-0.848;2022-08-19T00:48:29;11.75;;;4.95;;
42742;SDS011;28397;44.552;-0.848;2022-08-19T00:50:56;10.00;;;5.22;;
42742;SDS011;28397;44.552;-0.848;2022-08-19T00:53:24;8.00;;;4.50;;
42742;SDS011;28397;44.552;-0.848;2022-08-19T00:55:52;10.38;;;5.30;;
42742;SDS011;28397;44.552;-0.848;2022-08-19T00:58:21;8.70;;;4.80;;
42742;SDS011;28397;44.552;-0.848;2022-08-19T01:00:49;9.30;;;4.82;;
42742;SDS011;28397;44.552;-0.848;2022-08-19T01:03:17;8.57;;;5.18;;
42742;SDS011;28397;44.552;-0.848;2022-08-19T01:05:45;7.47;;;5.18;;
42742;SDS011;28397;44.552;-0.848;2022-08-19T01:08:14;8.15;;;5.00;;
42742;SDS011;28397;44.552;-0.848;2022-08-19T01:10:43;10.80;;;5.43;;
42742;SDS011;28397;44.552;-0.848;2022-08-19T01:13:17;8.50;;;5.25;;
42742;SDS011;28397;44.552;-0.848;2022-08-19T01:15:50;10.10;;;5.30;;
42742;SDS011;28397;44.552;-0.848;2022-08-19T01:18:21;8.48;;;5.25;;
42742;SDS011;28397;44.552;-0.848;2022-08-19T01:20:48;7.60;;;4.93;;
42742;SDS011;28397;44.552;-0.848;2022-08-19T01:23:15;10.63;;;5.60;;
42742;SDS011;28397;44.552;-0.848;2022-08-19T01:25:43;10.65;;;4.85;;
42742;SDS011;28397;44.552;-0.848;2022-08-19T01:28:16;8.13;;;4.78;;
42742;SDS011;28397;44.552;-0.848;2022-08-19T01:30:47;7.97;;;5.05;;
42742;SDS011;28397;44.552;-0.848;2022-08-19T01:33:13;9.27;;;5.15;;
42742;SDS011;28397;44.552;-0.848;2022-08-19T01:35:40;9.27;;;5.63;;
42742;SDS011;28397;44.552;-0.848;2022-08-19T01:38:07;9.57;;;5.43;;
42742;SDS011;28397;44.552;-0.848;2022-08-19T01:40:43;9.85;;;5.63;;
42742;SDS011;28397;44.552;-0.848;2022-08-19T01:43:09;7.55;;;5.63;;
42742;SDS011;28397;44.552;-0.848;2022-08-19T01:45:35;7.97;;;5.50;;
42742;SDS011;28397;44.552;-0.848;2022-08-19T01:48:05;8.23;;;5.38;;
42742;SDS011;28397;44.552;-0.848;2022-08-19T01:50:32;8.60;;;5.35;;
42742;SDS011;28397;44.552;-0.848;2022-08-19T01:52:59;9.10;;;5.55;;
42742;SDS011;28397;44.552;-0.848;2022-08-19T01:55:26;9.15;;;5.47;;
42742;SDS011;28397;44.552;-0.848;2022-08-19T01:57:54;7.22;;;5.10;;
42742;SDS011;28397;44.552;-0.848;2022-08-19T02:00:23;7.95;;;5.53;;
42742;SDS011;28397;44.552;-0.848;2022-08-19T02:02:50;10.68;;;5.50;;
42742;SDS011;28397;44.552;-0.848;2022-08-19T02:05:16;8.50;;;5.00;;
42742;SDS011;28397;44.552;-0.848;2022-08-19T02:07:43;9.55;;;5.05;;
42742;SDS011;28397;44.552;-0.848;2022-08-19T02:10:11;7.63;;;4.78;;
42742;SDS011;28397;44.552;-0.848;2022-08-19T02:12:39;8.43;;;5.18;;
42742;SDS011;28397;44.552;-0.848;2022-08-19T02:15:05;7.20;;;4.55;;
42742;SDS011;28397;44.552;-0.848;2022-08-19T02:17:32;8.43;;;4.72;;
42742;SDS011;28397;44.552;-0.848;2022-08-19T02:19:58;8.23;;;5.13;;
42742;SDS011;28397;44.552;-0.848;2022-08-19T02:22:24;8.27;;;5.50;;
42742;SDS011;28397;44.552;-0.848;2022-08-19T02:24:51;9.63;;;5.47;;
42742;SDS011;28397;44.552;-0.848;2022-08-19T02:27:20;7.25;;;5.20;;
42742;SDS011;28397;44.552;-0.848;2022-08-19T02:29:48;6.35;;;5.28;;
42742;SDS011;28397;44.552;-0.848;2022-08-19T02:32:15;9.52;;;5.40;;
42742;SDS011;28397;44.552;-0.848;2022-08-19T02:34:41;8.40;;;5.22;;
42742;SDS011;28397;44.552;-0.848;2022-08-19T02:37:07;11.82;;;6.22;;
42742;SDS011;28397;44.552;-0.848;2022-08-19T02:39:52;8.65;;;5.53;;
42742;SDS011;28397;44.552;-0.848;2022-08-19T02:42:18;7.80;;;5.70;;
42742;SDS011;28397;44.552;-0.848;2022-08-19T02:44:44;8.88;;;5.28;;
42742;SDS011;28397;44.552;-0.848;2022-08-19T02:47:10;7.15;;;5.75;;
42742;SDS011;28397;44.552;-0.848;2022-08-19T02:49:35;6.70;;;5.35;;
42742;SDS011;28397;44.552;-0.848;2022-08-19T02:52:02;9.48;;;5.10;;
42742;SDS011;28397;44.552;-0.848;2022-08-19T02:54:28;8.48;;;5.78;;
42742;SDS011;28397;44.552;-0.848;2022-08-19T02:56:53;7.75;;;5.40;;
42742;SDS011;28397;44.552;-0.848;2022-08-19T02:59:19;7.70;;;5.40;;
42742;SDS011;28397;44.552;-0.848;2022-08-19T03:01:45;9.45;;;5.00;;
42742;SDS011;28397;44.552;-0.848;2022-08-19T03:04:12;9.32;;;5.55;;
42742;SDS011;28397;44.552;-0.848;2022-08-19T03:06:41;9.38;;;5.65;;
42742;SDS011;28397;44.552;-0.848;2022-08-19T03:09:10;8.23;;;5.63;;
42742;SDS011;28397;44.552;-0.848;2022-08-19T03:11:36;6.93;;;5.45;;
42742;SDS011;28397;44.552;-0.848;2022-08-19T03:14:04;9.10;;;5.75;;
42742;SDS011;28397;44.552;-0.848;2022-08-19T03:16:34;11.95;;;6.63;;
42742;SDS011;28397;44.552;-0.848;2022-08-19T03:19:05;7.68;;;5.93;;
42742;SDS011;28397;44.552;-0.848;2022-08-19T03:21:31;8.02;;;6.05;;
42742;SDS011;28397;44.552;-0.848;2022-08-19T03:23:59;10.65;;;6.05;;
42742;SDS011;28397;44.552;-0.848;2022-08-19T03:26:30;12.05;;;6.15;;
42742;SDS011;28397;44.552;-0.848;2022-08-19T03:28:57;11.07;;;6.15;;
42742;SDS011;28397;44.552;-0.848;2022-08-19T03:31:26;10.18;;;6.20;;
42742;SDS011;28397;44.552;-0.848;2022-08-19T03:33:52;10.18;;;6.28;;
42742;SDS011;28397;44.552;-0.848;2022-08-19T03:36:19;9.10;;;5.75;;
42742;SDS011;28397;44.552;-0.848;2022-08-19T03:38:51;12.75;;;6.38;;
42742;SDS011;28397;44.552;-0.848;2022-08-19T03:41:29;10.23;;;6.03;;
42742;SDS011;28397;44.552;-0.848;2022-08-19T03:43:57;8.30;;;6.03;;
42742;SDS011;28397;44.552;-0.848;2022-08-19T03:46:25;9.07;;;6.30;;
42742;SDS011;28397;44.552;-0.848;2022-08-19T03:48:53;8.20;;;6.00;;
42742;SDS011;28397;44.552;-0.848;2022-08-19T03:53:48;9.73;;;6.15;;
42742;SDS011;28397;44.552;-0.848;2022-08-19T03:56:14;8.80;;;6.07;;
42742;SDS011;28397;44.552;-0.848;2022-08-19T03:58:40;9.05;;;5.90;;
42742;SDS011;28397;44.552;-0.848;2022-08-19T04:01:07;9.30;;;5.95;;
42742;SDS011;28397;44.552;-0.848;2022-08-19T04:03:38;8.02;;;6.13;;
42742;SDS011;28397;44.552;-0.848;2022-08-19T04:06:15;8.10;;;5.22;;
42742;SDS011;28397;44.552;-0.848;2022-08-19T04:08:43;10.35;;;6.10;;
42742;SDS011;28397;44.552;-0.848;2022-08-19T04:11:12;8.80;;;5.53;;
42742;SDS011;28397;44.552;-0.848;2022-08-19T04:13:41;7.75;;;5.00;;
42742;SDS011;28397;44.552;-0.848;2022-08-19T04:16:08;10.63;;;5.57;;
42742;SDS011;28397;44.552;-0.848;2022-08-19T04:18:35;6.57;;;5.13;;
42742;SDS011;28397;44.552;-0.848;2022-08-19T04:21:02;8.15;;;5.85;;
42742;SDS011;28397;44.552;-0.848;2022-08-19T04:23:28;11.63;;;6.35;;
42742;SDS011;28397;44.552;-0.848;2022-08-19T04:25:54;8.50;;;6.05;;
42742;SDS011;28397;44.552;-0.848;2022-08-19T04:28:20;6.03;;;5.40;;
42742;SDS011;28397;44.552;-0.848;2022-08-19T04:30:50;9.57;;;5.95;;
42742;SDS011;28397;44.552;-0.848;2022-08-19T04:33:18;8.50;;;5.97;;
42742;SDS011;28397;44.552;-0.848;2022-08-19T04:35:48;10.30;;;6.47;;
42742;SDS011;28397;44.552;-0.848;2022-08-19T04:38:18;8.20;;;5.75;;
42742;SDS011;28397;44.552;-0.848;2022-08-19T04:40:49;9.02;;;6.40;;
42742;SDS011;28397;44.552;-0.848;2022-08-19T04:43:36;10.20;;;5.97;;
42742;SDS011;28397;44.552;-0.848;2022-08-19T04:46:07;9.63;;;6.20;;
42742;SDS011;28397;44.552;-0.848;2022-08-19T04:48:35;8.05;;;5.82;;
42742;SDS011;28397;44.552;-0.848;2022-08-19T04:51:05;7.80;;;6.03;;
42742;SDS011;28397;44.552;-0.848;2022-08-19T04:53:32;8.68;;;6.22;;
42742;SDS011;28397;44.552;-0.848;2022-08-19T04:55:59;8.45;;;6.80;;
42742;SDS011;28397;44.552;-0.848;2022-08-19T04:58:32;10.88;;;7.00;;
42742;SDS011;28397;44.552;-0.848;2022-08-19T05:00:57;10.05;;;6.72;;
42742;SDS011;28397;44.552;-0.848;2022-08-19T05:03:25;11.85;;;7.10;;
42742;SDS011;28397;44.552;-0.848;2022-08-19T05:05:51;8.82;;;6.43;;
42742;SDS011;28397;44.552;-0.848;2022-08-19T05:08:18;10.48;;;6.47;;
42742;SDS011;28397;44.552;-0.848;2022-08-19T05:10:46;11.15;;;6.40;;
42742;SDS011;28397;44.552;-0.848;2022-08-19T05:13:14;10.70;;;6.72;;
42742;SDS011;28397;44.552;-0.848;2022-08-19T05:15:41;11.13;;;6.50;;
42742;SDS011;28397;44.552;-0.848;2022-08-19T05:18:07;7.35;;;6.25;;
42742;SDS011;28397;44.552;-0.848;2022-08-19T05:23:35;10.77;;;7.03;;
42742;SDS011;28397;44.552;-0.848;2022-08-19T05:26:01;9.98;;;6.28;;
42742;SDS011;28397;44.552;-0.848;2022-08-19T05:28:27;7.85;;;6.63;;
42742;SDS011;28397;44.552;-0.848;2022-08-19T05:30:53;8.88;;;6.07;;
42742;SDS011;28397;44.552;-0.848;2022-08-19T05:33:20;8.27;;;6.70;;
42742;SDS011;28397;44.552;-0.848;2022-08-19T05:35:47;8.20;;;6.63;;
42742;SDS011;28397;44.552;-0.848;2022-08-19T05:38:14;8.27;;;6.80;;
42742;SDS011;28397;44.552;-0.848;2022-08-19T05:40:40;7.70;;;6.38;;
42742;SDS011;28397;44.552;-0.848;2022-08-19T05:43:06;9.82;;;7.53;;
42742;SDS011;28397;44.552;-0.848;2022-08-19T05:45:37;8.95;;;7.20;;
42742;SDS011;28397;44.552;-0.848;2022-08-19T05:48:03;13.98;;;8.65;;
42742;SDS011;28397;44.552;-0.848;2022-08-19T05:50:29;9.70;;;7.88;;
42742;SDS011;28397;44.552;-0.848;2022-08-19T05:52:55;12.95;;;8.98;;
42742;SDS011;28397;44.552;-0.848;2022-08-19T05:55:21;12.48;;;9.70;;
42742;SDS011;28397;44.552;-0.848;2022-08-19T05:57:47;12.48;;;9.80;;
42742;SDS011;28397;44.552;-0.848;2022-08-19T06:00:13;14.07;;;10.70;;
42742;SDS011;28397;44.552;-0.848;2022-08-19T06:02:39;12.93;;;10.90;;
42742;SDS011;28397;44.552;-0.848;2022-08-19T06:05:06;17.10;;;11.65;;
42742;SDS011;28397;44.552;-0.848;2022-08-19T06:07:34;14.18;;;10.57;;
42742;SDS011;28397;44.552;-0.848;2022-08-19T06:10:01;15.07;;;11.02;;
42742;SDS011;28397;44.552;-0.848;2022-08-19T06:12:30;16.85;;;11.38;;
42742;SDS011;28397;44.552;-0.848;2022-08-19T06:15:00;15.18;;;11.35;;
42742;SDS011;28397;44.552;-0.848;2022-08-19T06:17:29;14.13;;;10.27;;
42742;SDS011;28397;44.552;-0.848;2022-08-19T06:19:55;13.35;;;9.65;;
42742;SDS011;28397;44.552;-0.848;2022-08-19T06:22:21;13.05;;;9.32;;
42742;SDS011;28397;44.552;-0.848;2022-08-19T06:24:48;13.63;;;8.02;;
42742;SDS011;28397;44.552;-0.848;2022-08-19T06:27:17;11.32;;;9.50;;
42742;SDS011;28397;44.552;-0.848;2022-08-19T06:29:43;15.52;;;8.50;;
42742;SDS011;28397;44.552;-0.848;2022-08-19T06:32:11;10.00;;;7.53;;
42742;SDS011;28397;44.552;-0.848;2022-08-19T06:34:39;11.77;;;7.35;;
42742;SDS011;28397;44.552;-0.848;2022-08-19T06:37:06;8.77;;;7.03;;
42742;SDS011;28397;44.552;-0.848;2022-08-19T06:39:33;8.80;;;6.93;;
42742;SDS011;28397;44.552;-0.848;2022-08-19T06:42:02;9.00;;;6.78;;
42742;SDS011;28397;44.552;-0.848;2022-08-19T06:44:32;10.00;;;6.50;;
42742;SDS011;28397;44.552;-0.848;2022-08-19T06:47:05;8.38;;;6.40;;
42742;SDS011;28397;44.552;-0.848;2022-08-19T06:49:32;10.70;;;6.65;;
42742;SDS011;28397;44.552;-0.848;2022-08-19T06:51:59;8.88;;;6.10;;
42742;SDS011;28397;44.552;-0.848;2022-08-19T06:54:25;8.55;;;6.25;;
42742;SDS011;28397;44.552;-0.848;2022-08-19T06:56:53;9.73;;;5.60;;
42742;SDS011;28397;44.552;-0.848;2022-08-19T06:59:20;7.57;;;5.60;;
42742;SDS011;28397;44.552;-0.848;2022-08-19T07:01:52;9.45;;;6.22;;
42742;SDS011;28397;44.552;-0.848;2022-08-19T07:04:21;9.60;;;5.97;;
42742;SDS011;28397;44.552;-0.848;2022-08-19T07:06:49;6.88;;;5.15;;
42742;SDS011;28397;44.552;-0.848;2022-08-19T07:09:16;8.63;;;5.53;;
42742;SDS011;28397;44.552;-0.848;2022-08-19T07:11:46;9.05;;;5.35;;
42742;SDS011;28397;44.552;-0.848;2022-08-19T07:14:16;8.52;;;5.20;;
42742;SDS011;28397;44.552;-0.848;2022-08-19T07:16:44;4.95;;;4.20;;
42742;SDS011;28397;44.552;-0.848;2022-08-19T07:19:11;5.82;;;4.18;;
42742;SDS011;28397;44.552;-0.848;2022-08-19T07:21:37;7.13;;;4.70;;
42742;SDS011;28397;44.552;-0.848;2022-08-19T07:24:03;7.45;;;4.40;;
42742;SDS011;28397;44.552;-0.848;2022-08-19T07:26:31;8.63;;;4.53;;
42742;SDS011;28397;44.552;-0.848;2022-08-19T07:28:58;8.32;;;4.90;;
42742;SDS011;28397;44.552;-0.848;2022-08-19T07:31:26;10.02;;;4.50;;
42742;SDS011;28397;44.552;-0.848;2022-08-19T07:33:53;5.72;;;3.95;;
42742;SDS011;28397;44.552;-0.848;2022-08-19T07:36:23;7.43;;;4.00;;
42742;SDS011;28397;44.552;-0.848;2022-08-19T07:38:54;7.60;;;3.70;;
42742;SDS011;28397;44.552;-0.848;2022-08-19T07:41:20;4.97;;;3.55;;
42742;SDS011;28397;44.552;-0.848;2022-08-19T07:43:48;5.10;;;3.38;;
42742;SDS011;28397;44.552;-0.848;2022-08-19T07:46:14;8.80;;;4.32;;
42742;SDS011;28397;44.552;-0.848;2022-08-19T07:48:42;5.00;;;3.20;;
42742;SDS011;28397;44.552;-0.848;2022-08-19T07:51:13;6.55;;;3.20;;
42742;SDS011;28397;44.552;-0.848;2022-08-19T07:53:42;4.00;;;3.33;;
42742;SDS011;28397;44.552;-0.848;2022-08-19T07:56:09;4.57;;;3.08;;
42742;SDS011;28397;44.552;-0.848;2022-08-19T07:58:37;3.92;;;2.78;;
42742;SDS011;28397;44.552;-0.848;2022-08-19T08:01:06;5.13;;;2.70;;
42742;SDS011;28397;44.552;-0.848;2022-08-19T08:03:33;4.28;;;2.50;;
42742;SDS011;28397;44.552;-0.848;2022-08-19T08:06:17;5.25;;;2.50;;
42742;SDS011;28397;44.552;-0.848;2022-08-19T08:09:03;5.28;;;2.47;;
42742;SDS011;28397;44.552;-0.848;2022-08-19T08:11:47;4.50;;;2.20;;
42742;SDS011;28397;44.552;-0.848;2022-08-19T08:14:16;4.18;;;2.40;;
42742;SDS011;28397;44.552;-0.848;2022-08-19T08:16:48;3.85;;;2.10;;
42742;SDS011;28397;44.552;-0.848;2022-08-19T08:19:15;3.78;;;2.05;;
42742;SDS011;28397;44.552;-0.848;2022-08-19T08:21:41;4.47;;;2.20;;
42742;SDS011;28397;44.552;-0.848;2022-08-19T08:24:08;4.43;;;1.95;;
42742;SDS011;28397;44.552;-0.848;2022-08-19T08:26:34;7.45;;;5.78;;
42742;SDS011;28397;44.552;-0.848;2022-08-19T08:29:00;5.82;;;3.20;;
42742;SDS011;28397;44.552;-0.848;2022-08-19T08:31:26;6.30;;;4.68;;
42742;SDS011;28397;44.552;-0.848;2022-08-19T08:33:53;5.30;;;2.92;;
42742;SDS011;28397;44.552;-0.848;2022-08-19T08:36:19;6.80;;;4.55;;
42742;SDS011;28397;44.552;-0.848;2022-08-19T08:38:45;4.32;;;3.58;;
42742;SDS011;28397;44.552;-0.848;2022-08-19T08:41:18;3.28;;;2.28;;
42742;SDS011;28397;44.552;-0.848;2022-08-19T08:43:55;3.10;;;2.17;;
42742;SDS011;28397;44.552;-0.848;2022-08-19T08:46:35;4.88;;;2.00;;
42742;SDS011;28397;44.552;-0.848;2022-08-19T08:51:43;3.72;;;2.00;;
42742;SDS011;28397;44.552;-0.848;2022-08-19T08:54:13;4.18;;;1.95;;
42742;SDS011;28397;44.552;-0.848;2022-08-19T08:56:42;4.28;;;1.83;;
42742;SDS011;28397;44.552;-0.848;2022-08-19T08:59:17;6.63;;;1.92;;
42742;SDS011;28397;44.552;-0.848;2022-08-19T09:01:46;2.95;;;1.60;;
42742;SDS011;28397;44.552;-0.848;2022-08-19T09:04:13;4.80;;;1.70;;
42742;SDS011;28397;44.552;-0.848;2022-08-19T09:09:30;4.65;;;1.40;;
42742;SDS011;28397;44.552;-0.848;2022-08-19T09:15:04;7.80;;;1.88;;
42742;SDS011;28397;44.552;-0.848;2022-08-19T09:17:33;3.30;;;1.48;;
42742;SDS011;28397;44.552;-0.848;2022-08-19T09:22:39;3.10;;;1.30;;
42742;SDS011;28397;44.552;-0.848;2022-08-19T09:25:09;4.07;;;1.45;;
42742;SDS011;28397;44.552;-0.848;2022-08-19T09:27:38;3.00;;;1.50;;
42742;SDS011;28397;44.552;-0.848;2022-08-19T09:30:06;11.48;;;2.28;;
42742;SDS011;28397;44.552;-0.848;2022-08-19T09:32:34;4.15;;;1.30;;
42742;SDS011;28397;44.552;-0.848;2022-08-19T09:34:59;3.92;;;1.40;;
42742;SDS011;28397;44.552;-0.848;2022-08-19T09:37:26;3.92;;;1.45;;
42742;SDS011;28397;44.552;-0.848;2022-08-19T09:39:52;2.25;;;1.20;;
42742;SDS011;28397;44.552;-0.848;2022-08-19T09:42:18;4.55;;;1.20;;
42742;SDS011;28397;44.552;-0.848;2022-08-19T09:44:44;1.90;;;1.20;;
42742;SDS011;28397;44.552;-0.848;2022-08-19T09:47:11;4.03;;;1.33;;
42742;SDS011;28397;44.552;-0.848;2022-08-19T09:49:38;2.88;;;1.20;;
42742;SDS011;28397;44.552;-0.848;2022-08-19T09:52:05;4.10;;;1.40;;
42742;SDS011;28397;44.552;-0.848;2022-08-19T09:54:33;7.05;;;1.67;;
42742;SDS011;28397;44.552;-0.848;2022-08-19T09:56:59;3.80;;;1.27;;
42742;SDS011;28397;44.552;-0.848;2022-08-19T09:59:26;2.22;;;1.23;;
42742;SDS011;28397;44.552;-0.848;2022-08-19T10:01:52;3.45;;;1.35;;
42742;SDS011;28397;44.552;-0.848;2022-08-19T10:04:18;4.85;;;1.50;;
42742;SDS011;28397;44.552;-0.848;2022-08-19T10:06:46;2.63;;;1.70;;
42742;SDS011;28397;44.552;-0.848;2022-08-19T10:09:13;2.20;;;1.30;;
42742;SDS011;28397;44.552;-0.848;2022-08-19T10:11:42;3.75;;;1.42;;
42742;SDS011;28397;44.552;-0.848;2022-08-19T10:14:11;2.80;;;1.63;;
42742;SDS011;28397;44.552;-0.848;2022-08-19T10:16:37;3.20;;;1.77;;
42742;SDS011;28397;44.552;-0.848;2022-08-19T10:19:04;3.03;;;1.45;;
42742;SDS011;28397;44.552;-0.848;2022-08-19T10:21:30;4.13;;;1.50;;
42742;SDS011;28397;44.552;-0.848;2022-08-19T10:23:59;2.80;;;1.50;;
42742;SDS011;28397;44.552;-0.848;2022-08-19T10:26:30;3.97;;;1.65;;
42742;SDS011;28397;44.552;-0.848;2022-08-19T10:28:58;4.22;;;1.40;;
42742;SDS011;28397;44.552;-0.848;2022-08-19T10:31:26;2.25;;;1.35;;
42742;SDS011;28397;44.552;-0.848;2022-08-19T10:33:53;1.88;;;1.00;;
42742;SDS011;28397;44.552;-0.848;2022-08-19T10:36:22;3.40;;;1.30;;
42742;SDS011;28397;44.552;-0.848;2022-08-19T10:39:02;1.25;;;1.15;;
42742;SDS011;28397;44.552;-0.848;2022-08-19T10:41:31;3.75;;;1.40;;
42742;SDS011;28397;44.552;-0.848;2022-08-19T10:44:03;5.22;;;1.50;;
42742;SDS011;28397;44.552;-0.848;2022-08-19T10:46:31;1.90;;;1.30;;
42742;SDS011;28397;44.552;-0.848;2022-08-19T10:49:00;4.03;;;1.30;;
42742;SDS011;28397;44.552;-0.848;2022-08-19T10:51:27;4.60;;;1.30;;
42742;SDS011;28397;44.552;-0.848;2022-08-19T10:54:11;2.10;;;1.10;;
42742;SDS011;28397;44.552;-0.848;2022-08-19T10:56:37;2.95;;;1.20;;
42742;SDS011;28397;44.552;-0.848;2022-08-19T10:59:19;4.80;;;1.23;;
42742;SDS011;28397;44.552;-0.848;2022-08-19T11:01:53;2.35;;;1.20;;
42742;SDS011;28397;44.552;-0.848;2022-08-19T11:04:20;7.10;;;1.55;;
42742;SDS011;28397;44.552;-0.848;2022-08-19T11:06:47;3.58;;;1.10;;
42742;SDS011;28397;44.552;-0.848;2022-08-19T11:09:15;3.38;;;1.30;;
42742;SDS011;28397;44.552;-0.848;2022-08-19T11:11:43;2.92;;;1.52;;
42742;SDS011;28397;44.552;-0.848;2022-08-19T11:14:12;2.65;;;1.30;;
42742;SDS011;28397;44.552;-0.848;2022-08-19T11:16:40;2.28;;;1.40;;
42742;SDS011;28397;44.552;-0.848;2022-08-19T11:19:07;3.97;;;1.35;;
42742;SDS011;28397;44.552;-0.848;2022-08-19T11:21:38;4.85;;;1.38;;
42742;SDS011;28397;44.552;-0.848;2022-08-19T11:24:08;1.88;;;1.25;;
42742;SDS011;28397;44.552;-0.848;2022-08-19T11:26:36;2.08;;;1.10;;
42742;SDS011;28397;44.552;-0.848;2022-08-19T11:29:04;2.15;;;1.08;;
42742;SDS011;28397;44.552;-0.848;2022-08-19T11:31:33;2.55;;;1.30;;
42742;SDS011;28397;44.552;-0.848;2022-08-19T11:34:01;3.03;;;1.33;;
42742;SDS011;28397;44.552;-0.848;2022-08-19T11:36:29;2.72;;;1.27;;
42742;SDS011;28397;44.552;-0.848;2022-08-19T11:38:56;3.55;;;1.25;;
42742;SDS011;28397;44.552;-0.848;2022-08-19T11:41:22;3.60;;;1.30;;
42742;SDS011;28397;44.552;-0.848;2022-08-19T11:43:48;1.70;;;1.10;;
42742;SDS011;28397;44.552;-0.848;2022-08-19T11:46:15;1.90;;;1.27;;
42742;SDS011;28397;44.552;-0.848;2022-08-19T11:48:42;2.10;;;1.27;;
42742;SDS011;28397;44.552;-0.848;2022-08-19T11:51:09;2.00;;;1.17;;
42742;SDS011;28397;44.552;-0.848;2022-08-19T11:53:37;1.90;;;1.10;;
42742;SDS011;28397;44.552;-0.848;2022-08-19T11:56:04;2.20;;;1.20;;
42742;SDS011;28397;44.552;-0.848;2022-08-19T11:58:31;3.17;;;1.20;;
42742;SDS011;28397;44.552;-0.848;2022-08-19T12:00:57;3.10;;;1.45;;
42742;SDS011;28397;44.552;-0.848;2022-08-19T12:03:23;2.97;;;1.20;;
42742;SDS011;28397;44.552;-0.848;2022-08-19T12:05:52;2.88;;;1.25;;
42742;SDS011;28397;44.552;-0.848;2022-08-19T12:08:18;1.77;;;1.05;;
42742;SDS011;28397;44.552;-0.848;2022-08-19T12:10:44;1.70;;;1.10;;
42742;SDS011;28397;44.552;-0.848;2022-08-19T12:13:10;1.50;;;1.00;;
42742;SDS011;28397;44.552;-0.848;2022-08-19T12:15:39;3.10;;;1.10;;
42742;SDS011;28397;44.552;-0.848;2022-08-19T12:18:06;1.65;;;1.10;;
42742;SDS011;28397;44.552;-0.848;2022-08-19T12:20:36;6.30;;;1.30;;
42742;SDS011;28397;44.552;-0.848;2022-08-19T12:23:03;5.03;;;1.30;;
42742;SDS011;28397;44.552;-0.848;2022-08-19T12:25:29;2.72;;;1.17;;
42742;SDS011;28397;44.552;-0.848;2022-08-19T12:27:56;3.05;;;1.20;;
42742;SDS011;28397;44.552;-0.848;2022-08-19T12:30:23;4.30;;;1.35;;
42742;SDS011;28397;44.552;-0.848;2022-08-19T12:32:49;4.20;;;1.50;;
42742;SDS011;28397;44.552;-0.848;2022-08-19T12:35:16;2.00;;;1.15;;
42742;SDS011;28397;44.552;-0.848;2022-08-19T12:37:44;3.60;;;1.20;;
42742;SDS011;28397;44.552;-0.848;2022-08-19T12:40:12;4.28;;;1.42;;
42742;SDS011;28397;44.552;-0.848;2022-08-19T12:42:38;2.42;;;1.13;;
42742;SDS011;28397;44.552;-0.848;2022-08-19T12:45:11;3.33;;;1.30;;
42742;SDS011;28397;44.552;-0.848;2022-08-19T12:47:38;3.80;;;1.40;;
42742;SDS011;28397;44.552;-0.848;2022-08-19T12:50:05;2.67;;;1.10;;
42742;SDS011;28397;44.552;-0.848;2022-08-19T12:52:33;2.65;;;1.10;;
42742;SDS011;28397;44.552;-0.848;2022-08-19T12:55:02;2.65;;;1.10;;
42742;SDS011;28397;44.552;-0.848;2022-08-19T12:57:29;3.45;;;1.20;;
42742;SDS011;28397;44.552;-0.848;2022-08-19T12:59:58;3.15;;;1.27;;
42742;SDS011;28397;44.552;-0.848;2022-08-19T13:02:25;2.15;;;1.23;;
42742;SDS011;28397;44.552;-0.848;2022-08-19T13:04:51;1.88;;;1.17;;
42742;SDS011;28397;44.552;-0.848;2022-08-19T13:07:17;3.58;;;1.40;;
42742;SDS011;28397;44.552;-0.848;2022-08-19T13:09:42;1.95;;;1.25;;
42742;SDS011;28397;44.552;-0.848;2022-08-19T13:12:08;2.58;;;1.23;;
42742;SDS011;28397;44.552;-0.848;2022-08-19T13:14:37;3.58;;;1.75;;
42742;SDS011;28397;44.552;-0.848;2022-08-19T13:17:05;3.58;;;1.45;;
42742;SDS011;28397;44.552;-0.848;2022-08-19T13:19:31;1.85;;;1.20;;
42742;SDS011;28397;44.552;-0.848;2022-08-19T13:21:57;2.85;;;1.20;;
42742;SDS011;28397;44.552;-0.848;2022-08-19T13:24:24;1.92;;;1.02;;
42742;SDS011;28397;44.552;-0.848;2022-08-19T13:26:50;1.75;;;1.20;;
42742;SDS011;28397;44.552;-0.848;2022-08-19T13:29:16;2.80;;;1.17;;
42742;SDS011;28397;44.552;-0.848;2022-08-19T13:32:00;4.53;;;1.40;;
42742;SDS011;28397;44.552;-0.848;2022-08-19T13:34:44;1.33;;;1.00;;
42742;SDS011;28397;44.552;-0.848;2022-08-19T13:37:11;1.55;;;0.93;;
42742;SDS011;28397;44.552;-0.848;2022-08-19T13:39:37;3.60;;;1.05;;
42742;SDS011;28397;44.552;-0.848;2022-08-19T13:42:03;2.40;;;1.10;;
42742;SDS011;28397;44.552;-0.848;2022-08-19T13:44:30;2.92;;;1.20;;
42742;SDS011;28397;44.552;-0.848;2022-08-19T13:46:59;2.38;;;0.90;;
42742;SDS011;28397;44.552;-0.848;2022-08-19T13:49:31;1.23;;;0.88;;
42742;SDS011;28397;44.552;-0.848;2022-08-19T13:51:58;1.48;;;0.98;;
42742;SDS011;28397;44.552;-0.848;2022-08-19T13:54:23;3.08;;;1.25;;
42742;SDS011;28397;44.552;-0.848;2022-08-19T13:56:49;1.30;;;1.02;;
42742;SDS011;28397;44.552;-0.848;2022-08-19T13:59:15;1.95;;;1.08;;
42742;SDS011;28397;44.552;-0.848;2022-08-19T14:01:42;2.80;;;1.15;;
42742;SDS011;28397;44.552;-0.848;2022-08-19T14:04:08;2.05;;;1.20;;
42742;SDS011;28397;44.552;-0.848;2022-08-19T14:06:34;1.10;;;0.70;;
42742;SDS011;28397;44.552;-0.848;2022-08-19T14:09:00;1.83;;;0.95;;
42742;SDS011;28397;44.552;-0.848;2022-08-19T14:11:27;1.65;;;1.00;;
42742;SDS011;28397;44.552;-0.848;2022-08-19T14:13:53;2.00;;;1.00;;
42742;SDS011;28397;44.552;-0.848;2022-08-19T14:16:18;1.65;;;0.90;;
42742;SDS011;28397;44.552;-0.848;2022-08-19T14:18:45;3.35;;;1.10;;
42742;SDS011;28397;44.552;-0.848;2022-08-19T14:21:17;1.50;;;1.00;;
42742;SDS011;28397;44.552;-0.848;2022-08-19T14:23:46;3.88;;;1.10;;
42742;SDS011;28397;44.552;-0.848;2022-08-19T14:26:13;3.08;;;1.10;;
42742;SDS011;28397;44.552;-0.848;2022-08-19T14:28:40;2.05;;;1.00;;
42742;SDS011;28397;44.552;-0.848;2022-08-19T14:31:11;3.47;;;1.00;;
42742;SDS011;28397;44.552;-0.848;2022-08-19T14:33:38;1.40;;;1.05;;
42742;SDS011;28397;44.552;-0.848;2022-08-19T14:36:05;2.25;;;1.20;;
42742;SDS011;28397;44.552;-0.848;2022-08-19T14:38:31;4.60;;;1.20;;
42742;SDS011;28397;44.552;-0.848;2022-08-19T14:41:14;2.45;;;1.00;;
42742;SDS011;28397;44.552;-0.848;2022-08-19T14:43:46;2.08;;;1.00;;
42742;SDS011;28397;44.552;-0.848;2022-08-19T14:46:17;2.90;;;1.10;;
42742;SDS011;28397;44.552;-0.848;2022-08-19T14:48:47;1.73;;;1.00;;
42742;SDS011;28397;44.552;-0.848;2022-08-19T14:51:16;1.80;;;1.10;;
42742;SDS011;28397;44.552;-0.848;2022-08-19T14:53:42;0.90;;;0.80;;